MC SHIMLA BLOCK LEVEL FORECAST
DISTRICT UNA
Block Amb
Forecast Date RAIN  (mm) TEMPERATURE HUMIDITY WIND CloudCover(octa)
Max(0C) Min(0C) 0830(%) 1730(%) Speed(kmph) Direction(0)
25-11-2021 0.0 24.4 5.3 36 21 6 68 0
26-11-2021 0.0 24.4 5.2 31 19 8 57 0
27-11-2021 0.0 24.3 5.1 38 19 7 68 0
28-11-2021 0.0 23.3 4.2 38 19 6 68 0
29-11-2021 0.0 23.4 4.2 29 13 8 22 0
Block Bangana
Forecast Date RAIN  (mm) TEMPERATURE HUMIDITY WIND CloudCover(octa)
Max(0C) Min(0C) 0830(%) 1730(%) Speed(kmph) Direction(0)
25-11-2021 0.0 25.0 6.0 36 21 6 68 0
26-11-2021 0.0 25.1 6.0 31 19 8 58 0
27-11-2021 0.0 24.9 5.8 38 19 7 68 0
28-11-2021 0.0 23.9 4.9 38 18 6 68 0
29-11-2021 0.0 24.0 4.9 29 13 8 29 0
BlockGagret
Forecast Date RAIN  (mm) TEMPERATURE HUMIDITY WIND CloudCover(octa)
Max(0C) Min(0C) 0830(%) 1730(%) Speed(kmph) Direction(0)
25-11-2021 0.0 25.4 6.3 36 21 6 68 0
26-11-2021 0.0 25.5 6.3 31 19 8 57 0
27-11-2021 0.0 25.4 6.2 38 19 7 68 0
28-11-2021 0.0 24.4 5.3 38 19 6 68 0
29-11-2021 0.0 24.5 5.3 29 13 8 22 0
                 
                 
Block Haroli
Forecast Date RAIN  (mm) TEMPERATURE HUMIDITY WIND CloudCover (octa)
Max(0C) Min(0C) 0830(%) 1730(%) Speed(kmph) Direction(0)
25-11-2021 0.0 26.8 7.7 36 21 6 68 0
26-11-2021 0.0 26.8 7.7 31 19 8 52 0
27-11-2021 0.0 26.7 7.6 38 19 7 68 0
28-11-2021 0.0 25.7 6.6 38 19 6 67 0
29-11-2021 0.0 25.8 6.7 29 13 8 22 0
Block Una
Forecast Date RAIN  (mm) TEMPERATURE HUMIDITY WIND CloudCover(octa)
Max(0C) Min(0C) 0830(%) 1730(%) Speed(kmph) Direction(0)
25-11-2021 0.0 26.1 7.1 36 21 6 68 0
26-11-2021 0.0 26.3 7.1 31 19 8 56 0
27-11-2021 0.0 26.1 7.0 38 19 7 68 0
28-11-2021 0.0 25.1 6.1 38 19 6 68 0
29-11-2021 0.0 25.2 6.1 29 13 8 22 0